Boulder Creek, CA

7:52 AM PST on November 28, 2014 (GMT -0800)
Cresta Vista | Change Station
CLOSE
Current Station
Personal Weather Station
Location: Boulder Creek, CA
Elevation: 695 ft
Nearby Weather Stations

Elev 695 ft 37.14 °N, 122.13 °W | Updated 4 seconds ago

Partly Cloudy
Partly Cloudy
30.9 °F
Feels Like 31 °F
N
1.0
Wind Variable Wind from NNW
Gusts 1.0 mph

Today
High -- | Low -- °F
--% Chance of Precip.
Yesterday
High -- | Low -- °F
Precip. -- in
7:00 AM 4:52 PM
Waxing Crescent, 41% visible
Pressure 30.05 in
Visibility 3.0 miles
Clouds Few 100 ft
Mostly Cloudy 300 ft
Mostly Cloudy 500 ft
Windchill 31 °F
Dew Point 30 °F
Humidity 95%
Rainfall 0.00 in
Snow Depth Not available.
UV 0.0 out of 12
Pollen 2.30 out of 12
Air Quality Not available.
Flu Activity Not available.
SPECI KSJC 281548Z 11004KT 3SM HZ FEW001 BKN003 BKN005 06/03 A3005 RMK AO2

More Conditions Fewer Conditions

Pressure 30.05 in
Visibility 3.0 miles
Clouds Few 100 ft
Mostly Cloudy 300 ft
Mostly Cloudy 500 ft
Windchill 31 °F
Dew Point 30 °F
Humidity 95%
Rainfall 0.00 in
Snow Depth Not available.
UV 0.0 out of 12
Pollen 2.30 out of 12
Air Quality Not available.
Flu Activity Not available.
SPECI KSJC 281548Z 11004KT 3SM HZ FEW001 BKN003 BKN005 06/03 A3005 RMK AO2

More Conditions Fewer Conditions

10-Day Weather Forecast

Almanac

Astronomy

Nov. 28, 2014 Rise Set
Actual Time
Civil Twilight
Nautical Twilight
Astronomical Twilight
Moon
Length of Visible Light
Length of Day
Tomorrow will be .
, % of the Moon is Illuminated

Today's Extremes

State Highs State Lows

Community

WunderPhotos

Upload Photos

1,774,234 photos uploaded!

WunderBlogs® & News

Nearby

Air Quality

  Air Quality AQ Index Pollutant
Not available.

Snow Depth

Station Depth Elevation

Earthquake Activity

City Distance Mag. Time & Date
Minimum magnitude displayed is 2.5.

Coastal Water Temperatures

Place Temperature

Nearby Weather Stations